首页
METAR-TAF:

METAR-TAF

机场 :

維多利亞, 西班牙

纬度: 42-53N, 经度: 002-43W, 海拔: 513米

当前天气观测

该预报发布于15分钟前的03:00 UTC
风速5节,风向西南,在南转西南西之间变化
温度 4°C
湿度 81%
气压 1012 hPa
能见度10公里或以上
少量云层高于2500英尺
多云层高于4500英尺

METAR: LEVT 170300Z 22005KT 200V260 9999 FEW025 BKN045 04/01 Q1012

时间: 04:15 (03:15 UTC)

预报

该预报发布于4小时和15分钟前的23:00 UTC
预报有效从17日的 00点(UTC)到 17日的 24点(UTC)
风速5节,风向西南
能见度10公里或以上
散云层高于1500英尺
多云层高于2500英尺
短暂存在
从 17日的 12点(UTC)到 17日的 14点(UTC)
风速12节,风向西南,有时为22节阵风
成为
从 17日的 14点(UTC)到 17日的 16点(UTC)
风速10节,风向西北
几率 30% :
短暂存在
从 17日的 00点(UTC)到 17日的 09点(UTC)
能見度: 4000
多云层高于1000英尺
小雨, 轻雾
短暂存在
从 17日的 09点(UTC)到 17日的 24点(UTC)
能見度: 3000
散云层高于2500英尺, 塔状积云.
雨, 阵雨

TAF: LEVT 162300Z 1700/1724 22005KT 9999 SCT015 BKN025 TX07/1713Z TN01/1703Z TEMPO 1712/1714 22012G22KT BECMG 1714/1716 31010KT PROB30 TEMPO 1700/1709 4000 -RA BR BKN010 TEMPO 1709/1724 3000 RA SHRA SCT025TCU

超过4000个机场的气象观测和天气预报(METAR&TAF报告)。

可查询的气象台以黄色和红色小点在地图上表示。

将鼠标移到小点上方,可查看气象台名称。

然后点击查看天气观测和预报。

如需切换地图:点击带黑十字的绿色按钮放大地图;点击带横线的绿色按钮缩小地图;或者点击绿色箭头查看邻近地区的地图。


METAR-TAF: